Time;durP1;ratioP1;P1;durP2;ratioP2;P2;SDS_P1;SDS_P2;PMS_P1;PMS_P2;Temp;Humidity;BMP_temperature;BMP_pressure;BME280_temperature;BME280_humidity;BME280_pressure;Samples;Min_cycle;Max_cycle;Signal;HPM_P1;HPM_P2
2023/09/09 00:01:52;;;;;;;5.90;5.40;;;20.50;99.90;;;;;;6039025;23;20437;-73
2023/09/09 00:04:18;;;;;;;5.43;5.03;;;20.40;99.90;;;;;;6037873;23;20397;-72
2023/09/09 00:06:45;;;;;;;5.83;5.33;;;20.40;99.90;;;;;;6038271;23;20200;-75
2023/09/09 00:09:12;;;;;;;7.10;6.50;;;20.40;99.90;;;;;;6035433;23;20206;-77
2023/09/09 00:14:29;;;;;;;7.90;6.80;;;20.30;99.90;;;;;;6107088;23;20475;-75
2023/09/09 00:16:54;;;;;;;6.77;6.17;;;20.30;99.90;;;;;;6088245;23;20392;-73
2023/09/09 00:19:21;;;;;;;7.20;6.50;;;20.30;99.90;;;;;;6088908;23;20440;-74
2023/09/09 00:21:47;;;;;;;6.70;5.97;;;20.30;99.90;;;;;;6089133;23;20137;-75
2023/09/09 00:24:14;;;;;;;8.30;7.50;;;20.30;99.90;;;;;;6025900;23;20403;-73
2023/09/09 00:26:40;;;;;;;7.70;7.00;;;20.30;99.90;;;;;;6002313;23;20387;-73
2023/09/09 00:29:06;;;;;;;7.90;7.20;;;20.30;99.90;;;;;;6001943;23;20434;-73
2023/09/09 00:31:33;;;;;;;8.83;8.03;;;20.30;99.90;;;;;;6025765;23;20196;-73
2023/09/09 00:34:00;;;;;;;6.83;6.23;;;20.40;99.90;;;;;;6025995;23;20395;-75
2023/09/09 00:36:25;;;;;;;7.80;6.40;;;20.40;99.90;;;;;;5979413;23;20416;-75
2023/09/09 00:38:51;;;;;;;6.10;5.50;;;20.30;99.90;;;;;;6005065;23;20159;-73
2023/09/09 00:41:18;;;;;;;7.77;5.80;;;20.30;99.90;;;;;;6029535;23;20154;-74
2023/09/09 00:43:47;;;;;;;6.10;5.60;;;20.20;99.90;;;;;;6030671;23;20195;-74
2023/09/09 00:46:17;;;;;;;6.50;5.90;;;20.20;99.90;;;;;;6006390;23;20412;-73
2023/09/09 00:48:44;;;;;;;5.73;5.23;;;20.10;99.90;;;;;;5982298;23;20458;-73
2023/09/09 00:51:12;;;;;;;5.63;5.00;;;20.10;99.90;;;;;;6008478;23;20359;-73
2023/09/09 00:53:39;;;;;;;5.80;5.00;;;20.00;99.90;;;;;;6004834;23;20743;-72
2023/09/09 00:56:06;;;;;;;5.13;4.63;;;20.00;99.90;;;;;;6080884;23;20431;-73
2023/09/09 00:58:32;;;;;;;5.03;4.63;;;20.00;99.90;;;;;;6091815;23;20361;-73
2023/09/09 01:01:04;;;;;;;7.00;5.53;;;19.90;99.90;;;;;;6067048;23;20476;-72
2023/09/09 01:03:30;;;;;;;5.53;5.03;;;19.90;99.90;;;;;;6093276;23;20387;-73
2023/09/09 01:05:57;;;;;;;5.10;4.60;;;19.90;99.90;;;;;;6066716;23;20441;-73
2023/09/09 01:08:30;;;;;;;6.37;5.00;;;19.80;99.90;;;;;;6067701;23;20444;-74
2023/09/09 01:10:57;;;;;;;5.87;5.37;;;19.80;99.90;;;;;;6066394;23;20376;-73
2023/09/09 01:13:23;;;;;;;7.37;6.37;;;19.70;99.90;;;;;;6066630;23;20407;-74
2023/09/09 01:15:49;;;;;;;6.37;5.57;;;19.70;99.90;;;;;;6064916;23;20384;-73
2023/09/09 01:18:17;;;;;;;7.10;6.50;;;19.70;99.90;;;;;;6065589;23;20372;-72
2023/09/09 01:20:58;;;;;;;6.70;6.10;;;19.70;99.90;;;;;;6091356;23;20415;-72
2023/09/09 01:23:24;;;;;;;6.60;6.00;;;19.70;99.90;;;;;;6065259;23;20412;-74
2023/09/09 01:25:49;;;;;;;6.10;5.60;;;19.70;99.90;;;;;;6065488;23;20380;-73
2023/09/09 01:28:19;;;;;;;5.90;5.33;;;19.60;99.90;;;;;;6065632;23;20416;-74
2023/09/09 01:30:44;;;;;;;6.50;5.90;;;19.60;99.90;;;;;;6112157;23;20144;-72
2023/09/09 01:33:10;;;;;;;7.13;6.50;;;19.50;99.90;;;;;;6087256;23;20400;-75
2023/09/09 01:35:35;;;;;;;8.17;6.67;;;19.50;99.90;;;;;;6087625;23;20156;-75
2023/09/09 01:38:02;;;;;;;6.60;5.90;;;19.40;99.90;;;;;;6062515;23;20141;-75
2023/09/09 01:40:28;;;;;;;7.60;6.90;;;19.50;99.90;;;;;;6086063;23;20514;-71
2023/09/09 01:42:54;;;;;;;6.63;6.03;;;19.50;99.90;;;;;;6062890;23;20440;-74
2023/09/09 01:45:19;;;;;;;6.27;5.77;;;19.50;99.90;;;;;;6086023;23;20172;-72
2023/09/09 01:47:45;;;;;;;7.00;6.40;;;19.40;99.90;;;;;;6038743;23;20461;-73
2023/09/09 01:50:11;;;;;;;8.57;7.37;;;19.40;99.90;;;;;;6088514;23;20133;-72
2023/09/09 01:52:37;;;;;;;7.67;6.87;;;19.40;99.90;;;;;;6066567;23;20151;-72
2023/09/09 01:55:02;;;;;;;10.73;6.80;;;19.50;99.90;;;;;;6065876;23;20176;-72
2023/09/09 01:57:30;;;;;;;6.80;6.10;;;19.50;99.90;;;;;;6065256;23;20145;-72
2023/09/09 01:59:57;;;;;;;6.87;6.17;;;19.50;99.90;;;;;;6064956;23;20510;-72
2023/09/09 02:02:23;;;;;;;7.13;6.00;;;19.50;99.90;;;;;;6065361;23;20383;-73
2023/09/09 02:04:49;;;;;;;7.50;6.67;;;19.40;99.90;;;;;;6090191;23;20455;-74
2023/09/09 02:07:16;;;;;;;6.57;5.90;;;19.40;99.90;;;;;;6088464;23;20138;-73
2023/09/09 02:09:42;;;;;;;6.70;6.10;;;19.30;99.90;;;;;;6092793;23;20150;-73
2023/09/09 02:12:08;;;;;;;6.43;5.73;;;19.30;99.90;;;;;;6065284;23;20403;-74
2023/09/09 02:14:34;;;;;;;5.50;5.00;;;19.20;99.90;;;;;;6067176;23;20393;-73
2023/09/09 02:17:02;;;;;;;5.03;4.53;;;19.20;99.90;;;;;;6090401;23;20372;-71
2023/09/09 02:19:27;;;;;;;4.90;4.40;;;19.10;99.90;;;;;;6065865;23;20199;-76
2023/09/09 02:21:55;;;;;;;5.87;4.67;;;19.10;99.90;;;;;;6091247;23;20415;-74
2023/09/09 02:24:22;;;;;;;4.50;4.07;;;19.00;99.90;;;;;;6089300;23;20203;-73
2023/09/09 02:26:48;;;;;;;4.23;3.83;;;18.90;99.90;;;;;;6087080;23;20379;-74
2023/09/09 02:29:14;;;;;;;4.90;4.50;;;18.90;99.90;;;;;;6063768;23;20420;-74
2023/09/09 02:31:40;;;;;;;4.90;4.50;;;18.90;99.90;;;;;;6062816;23;20155;-72
2023/09/09 02:34:06;;;;;;;6.60;6.00;;;18.90;99.90;;;;;;6086898;23;20169;-73
2023/09/09 02:36:32;;;;;;;6.90;6.20;;;18.90;99.90;;;;;;6085069;23;20405;-74
2023/09/09 02:38:58;;;;;;;4.60;4.20;;;18.80;99.90;;;;;;6086014;23;20447;-73
2023/09/09 02:41:23;;;;;;;5.87;5.20;;;18.80;99.90;;;;;;6085604;23;20480;-74
2023/09/09 02:43:49;;;;;;;6.57;5.97;;;18.80;99.90;;;;;;6063957;23;20169;-73
2023/09/09 02:46:15;;;;;;;7.20;6.30;;;18.80;99.90;;;;;;6064567;23;20151;-72
2023/09/09 02:48:41;;;;;;;6.77;6.07;;;18.80;99.90;;;;;;6084737;23;20442;-74
2023/09/09 02:51:08;;;;;;;8.13;6.33;;;18.80;99.90;;;;;;6038152;23;20458;-74
2023/09/09 02:53:33;;;;;;;7.90;7.10;;;18.70;99.90;;;;;;6058440;23;20399;-71
2023/09/09 02:55:59;;;;;;;7.50;6.80;;;18.70;99.90;;;;;;6106871;23;20136;-72
2023/09/09 02:58:25;;;;;;;7.70;6.90;;;18.70;99.90;;;;;;6107280;23;20152;-73
2023/09/09 03:00:51;;;;;;;8.33;7.53;;;18.80;99.90;;;;;;6083254;23;20171;-72
2023/09/09 03:03:20;;;;;;;7.57;6.83;;;18.80;99.90;;;;;;6084714;23;20457;-72
2023/09/09 03:05:46;;;;;;;6.27;5.67;;;18.80;99.90;;;;;;6058550;23;20152;-76
2023/09/09 03:08:11;;;;;;;9.07;7.87;;;18.80;99.90;;;;;;6062231;23;20446;-72
2023/09/09 03:10:37;;;;;;;11.27;7.93;;;18.80;99.90;;;;;;6061455;23;20155;-73
2023/09/09 03:13:03;;;;;;;7.87;7.10;;;18.80;99.90;;;;;;6061866;23;20244;-71
2023/09/09 03:15:29;;;;;;;7.50;6.70;;;18.80;99.90;;;;;;6059612;23;20382;-71
2023/09/09 03:17:55;;;;;;;8.40;6.77;;;18.80;99.90;;;;;;6085191;23;20167;-73
2023/09/09 03:20:24;;;;;;;6.80;6.20;;;18.70;99.90;;;;;;6059382;23;20446;-72
2023/09/09 03:22:50;;;;;;;7.13;6.43;;;18.70;99.90;;;;;;6078134;23;20670;-72
2023/09/09 03:25:16;;;;;;;7.83;7.13;;;18.60;99.90;;;;;;6100708;23;20364;-71
2023/09/09 03:27:42;;;;;;;6.20;5.60;;;18.50;99.90;;;;;;6052133;23;20218;-73
2023/09/09 03:30:09;;;;;;;7.10;6.40;;;18.50;99.90;;;;;;6075903;23;20805;-73
2023/09/09 03:32:34;;;;;;;7.47;6.17;;;18.50;99.90;;;;;;6077487;23;20147;-72
2023/09/09 03:35:00;;;;;;;9.70;7.57;;;18.40;99.90;;;;;;6076591;23;20449;-70
2023/09/09 03:37:26;;;;;;;7.70;6.97;;;18.40;99.90;;;;;;6081782;23;20146;-71
2023/09/09 03:39:51;;;;;;;6.10;5.60;;;18.40;99.90;;;;;;6104118;23;20162;-71
2023/09/09 03:42:17;;;;;;;7.07;6.20;;;18.30;99.90;;;;;;6103846;23;20140;-73
2023/09/09 03:44:42;;;;;;;7.83;6.60;;;18.30;99.90;;;;;;6078278;23;20175;-72
2023/09/09 03:47:08;;;;;;;7.17;6.57;;;18.30;99.90;;;;;;6054374;23;20189;-72
2023/09/09 03:49:34;;;;;;;7.13;6.53;;;18.20;99.90;;;;;;6077425;23;20371;-72
2023/09/09 03:51:59;;;;;;;7.80;7.10;;;18.20;99.90;;;;;;6078380;23;20141;-72
2023/09/09 03:54:26;;;;;;;8.40;7.60;;;18.10;99.90;;;;;;6081994;23;20169;-70
2023/09/09 03:56:51;;;;;;;7.60;6.90;;;18.10;99.90;;;;;;6107608;23;20427;-72
2023/09/09 03:59:17;;;;;;;7.60;7.00;;;18.10;99.90;;;;;;6082029;23;20225;-71
2023/09/09 04:01:43;;;;;;;7.57;6.77;;;18.10;99.90;;;;;;6054777;23;20536;-73
2023/09/09 04:04:08;;;;;;;6.77;6.17;;;18.10;99.90;;;;;;6099964;23;20725;-72
2023/09/09 04:06:34;;;;;;;6.17;5.57;;;18.00;99.90;;;;;;6098787;23;20149;-73
2023/09/09 04:09:00;;;;;;;7.10;6.50;;;18.00;99.90;;;;;;6073843;23;20205;-71
2023/09/09 04:11:26;;;;;;;6.93;6.33;;;18.00;99.90;;;;;;6099713;23;20380;-71
2023/09/09 04:13:52;;;;;;;6.53;6.00;;;17.90;99.90;;;;;;6100211;23;20157;-72
2023/09/09 04:16:18;;;;;;;7.33;6.60;;;17.90;99.90;;;;;;6075755;23;20164;-72
2023/09/09 04:18:43;;;;;;;6.30;5.70;;;17.90;99.90;;;;;;6074290;23;20387;-72
2023/09/09 04:21:09;;;;;;;5.50;4.80;;;17.80;99.90;;;;;;6099269;23;20153;-73
2023/09/09 04:23:35;;;;;;;6.33;5.73;;;17.80;99.90;;;;;;6074168;23;20171;-71
2023/09/09 04:26:00;;;;;;;6.00;5.40;;;17.80;99.90;;;;;;6074420;23;20179;-72
2023/09/09 04:28:33;;;;;;;6.03;5.50;;;17.70;99.90;;;;;;6088703;23;20457;-73
2023/09/09 04:31:00;;;;;;;6.00;5.40;;;17.70;99.90;;;;;;6091625;23;20405;-73
2023/09/09 04:33:26;;;;;;;5.80;5.30;;;17.70;99.90;;;;;;6091643;23;20434;-74
2023/09/09 04:35:52;;;;;;;6.10;5.50;;;17.70;99.90;;;;;;6090067;23;20841;-73
2023/09/09 04:38:19;;;;;;;5.87;5.37;;;17.70;99.90;;;;;;6056009;23;20406;-74
2023/09/09 04:40:45;;;;;;;6.77;5.40;;;17.60;99.90;;;;;;6099303;23;20179;-73
2023/09/09 04:43:11;;;;;;;5.77;5.13;;;17.60;99.90;;;;;;6074057;23;20404;-71
2023/09/09 04:45:37;;;;;;;6.87;5.83;;;17.60;99.90;;;;;;6100045;23;20366;-72
2023/09/09 04:48:04;;;;;;;6.13;5.50;;;17.60;99.90;;;;;;6074058;23;20200;-71
2023/09/09 04:50:30;;;;;;;7.83;7.03;;;17.60;99.90;;;;;;6074694;23;20377;-73
2023/09/09 04:52:56;;;;;;;7.23;6.53;;;17.60;99.90;;;;;;6074417;23;20412;-72
2023/09/09 04:55:21;;;;;;;7.77;6.97;;;17.60;99.90;;;;;;6099763;23;20508;-71
2023/09/09 04:57:47;;;;;;;7.07;6.37;;;17.60;99.90;;;;;;6052842;23;20156;-74
2023/09/09 05:00:14;;;;;;;7.67;7.03;;;17.60;99.90;;;;;;6051880;23;20194;-69
2023/09/09 05:02:40;;;;;;;7.90;7.10;;;17.60;99.90;;;;;;6085482;23;20452;-71
2023/09/09 05:05:07;;;;;;;7.87;6.20;;;17.60;99.90;;;;;;6060977;23;20380;-70
2023/09/09 05:07:35;;;;;;;8.43;7.60;;;17.60;99.90;;;;;;6082840;23;20428;-72
2023/09/09 05:10:04;;;;;;;7.93;7.20;;;17.70;99.90;;;;;;6107372;23;20347;-71
2023/09/09 05:12:33;;;;;;;7.47;6.70;;;17.70;99.90;;;;;;6083926;23;20374;-72
2023/09/09 05:14:59;;;;;;;7.67;6.83;;;17.70;99.90;;;;;;6038538;23;20382;-71
2023/09/09 05:17:27;;;;;;;7.50;6.80;;;17.70;99.90;;;;;;6087246;23;20366;-71
2023/09/09 05:19:53;;;;;;;7.70;6.90;;;17.70;99.90;;;;;;6079053;23;20257;-74
2023/09/09 05:22:18;;;;;;;8.10;7.20;;;17.80;99.90;;;;;;6082320;23;20380;-71
2023/09/09 05:24:44;;;;;;;8.50;7.70;;;17.80;99.90;;;;;;6082147;23;20253;-72
2023/09/09 05:27:10;;;;;;;7.70;7.00;;;17.80;99.90;;;;;;6060971;23;20140;-73
2023/09/09 05:29:36;;;;;;;8.90;7.77;;;17.90;99.90;;;;;;6057783;23;20403;-72
2023/09/09 05:32:02;;;;;;;7.33;6.63;;;17.90;99.90;;;;;;6058425;23;20149;-73
2023/09/09 05:34:28;;;;;;;8.63;6.90;;;18.00;99.90;;;;;;6057662;23;20461;-72
2023/09/09 05:36:54;;;;;;;8.53;7.63;;;18.00;99.90;;;;;;6056546;23;20164;-72
2023/09/09 05:39:20;;;;;;;7.60;6.90;;;18.10;99.90;;;;;;6059322;23;20141;-72
2023/09/09 05:41:47;;;;;;;7.47;6.77;;;18.10;99.90;;;;;;6059447;23;20784;-72
2023/09/09 05:44:13;;;;;;;5.67;5.17;;;18.10;99.90;;;;;;6061318;23;20199;-73
2023/09/09 05:46:39;;;;;;;6.57;5.97;;;18.20;99.90;;;;;;6055914;23;20658;-71
2023/09/09 05:49:05;;;;;;;6.00;5.50;;;18.20;99.90;;;;;;6055640;23;20537;-73
2023/09/09 05:51:32;;;;;;;6.00;5.40;;;18.30;99.90;;;;;;6081145;23;20668;-73
2023/09/09 05:54:00;;;;;;;6.00;5.40;;;18.30;99.90;;;;;;6057560;23;20401;-71
2023/09/09 05:56:26;;;;;;;5.43;4.93;;;18.40;99.90;;;;;;6079345;23;20632;-73
2023/09/09 05:58:53;;;;;;;5.80;5.30;;;18.40;99.90;;;;;;6057192;23;20402;-75
2023/09/09 06:01:19;;;;;;;6.17;5.67;;;18.40;99.90;;;;;;6060660;23;20402;-72
2023/09/09 06:03:45;;;;;;;6.10;5.60;;;18.50;99.90;;;;;;6057445;23;20395;-73
2023/09/09 06:06:11;;;;;;;7.00;6.30;;;18.60;99.90;;;;;;6086510;23;20403;-73
2023/09/09 06:08:39;;;;;;;6.67;5.00;;;18.60;99.90;;;;;;6067409;23;20172;-75
2023/09/09 06:11:08;;;;;;;6.67;5.97;;;18.70;99.90;;;;;;6090500;23;20366;-74
2023/09/09 06:13:39;;;;;;;6.20;5.70;;;18.70;99.90;;;;;;6067508;23;20391;-75
2023/09/09 06:16:07;;;;;;;6.30;5.70;;;18.80;99.90;;;;;;6084973;23;20374;-72
2023/09/09 06:18:32;;;;;;;6.50;5.90;;;18.80;99.90;;;;;;6062325;23;20367;-74
2023/09/09 06:20:59;;;;;;;6.27;5.70;;;18.90;99.90;;;;;;6065043;23;20819;-74
2023/09/09 06:23:25;;;;;;;6.40;5.80;;;19.00;99.90;;;;;;6089724;23;20393;-72
2023/09/09 06:25:52;;;;;;;8.07;7.27;;;19.00;99.90;;;;;;6064058;23;20390;-72
2023/09/09 06:28:19;;;;;;;7.57;6.97;;;19.10;99.90;;;;;;6066017;23;20176;-73
2023/09/09 06:30:48;;;;;;;8.00;6.80;;;19.10;99.90;;;;;;6089625;23;20388;-72
2023/09/09 06:33:14;;;;;;;6.97;6.33;;;19.20;99.90;;;;;;6068241;23;20630;-75
2023/09/09 06:35:54;;;;;;;7.77;6.20;;;19.20;99.90;;;;;;6092156;23;20411;-74
2023/09/09 06:38:23;;;;;;;6.80;6.10;;;19.30;99.90;;;;;;6090476;23;20263;-72
2023/09/09 06:40:49;;;;;;;6.97;6.27;;;19.40;99.90;;;;;;6067728;23;21013;-72
2023/09/09 06:43:19;;;;;;;5.60;5.10;;;19.40;99.90;;;;;;6072175;23;20419;-74
2023/09/09 06:45:46;;;;;;;5.33;4.83;;;19.50;99.90;;;;;;6066434;23;20388;-73
2023/09/09 06:48:16;;;;;;;5.30;4.80;;;19.60;99.90;;;;;;6090966;23;20405;-72
2023/09/09 06:50:45;;;;;;;5.83;5.20;;;19.70;99.90;;;;;;6068093;23;20388;-73
2023/09/09 06:53:13;;;;;;;5.87;5.37;;;19.70;99.90;;;;;;6086458;23;20401;-72
2023/09/09 06:55:41;;;;;;;6.40;5.80;;;19.80;99.90;;;;;;6038799;23;20417;-73
2023/09/09 06:58:07;;;;;;;9.23;7.90;;;19.80;99.90;;;;;;6063922;23;20373;-75
2023/09/09 07:00:33;;;;;;;9.13;7.13;;;19.90;99.90;;;;;;6085713;23;20469;-71
2023/09/09 07:03:00;;;;;;;7.83;7.03;;;20.00;99.90;;;;;;6066432;23;20420;-75
2023/09/09 07:05:25;;;;;;;7.93;6.80;;;20.00;99.90;;;;;;6088265;23;20402;-74
2023/09/09 07:07:51;;;;;;;12.53;6.90;;;20.10;99.90;;;;;;6062879;23;20504;-75
2023/09/09 07:10:17;;;;;;;11.27;6.97;;;20.10;99.90;;;;;;6040261;23;20161;-73
2023/09/09 07:12:42;;;;;;;7.03;6.43;;;20.20;99.90;;;;;;6061153;23;20157;-73
2023/09/09 07:15:09;;;;;;;7.20;6.50;;;20.30;99.90;;;;;;6058791;23;20137;-72
2023/09/09 07:17:35;;;;;;;7.20;6.60;;;20.30;99.90;;;;;;6105965;23;20150;-72
2023/09/09 07:20:01;;;;;;;7.80;7.00;;;20.40;99.90;;;;;;6036418;23;20424;-73
2023/09/09 07:22:27;;;;;;;8.07;7.27;;;20.40;99.90;;;;;;6058700;23;20429;-74
2023/09/09 07:24:52;;;;;;;7.43;6.83;;;20.50;99.90;;;;;;6090506;23;20428;-73
2023/09/09 07:27:20;;;;;;;8.13;7.30;;;20.60;99.90;;;;;;6091120;23;20149;-74
2023/09/09 07:29:45;;;;;;;8.63;7.10;;;20.60;99.90;;;;;;6067653;23;20425;-72
2023/09/09 07:32:11;;;;;;;7.37;6.60;;;20.60;99.90;;;;;;6070039;23;20716;-74
2023/09/09 07:34:37;;;;;;;6.50;5.83;;;20.70;99.90;;;;;;6117545;23;20168;-76
2023/09/09 07:37:03;;;;;;;6.70;6.10;;;20.70;99.90;;;;;;6068490;23;20140;-72
2023/09/09 07:39:29;;;;;;;7.10;6.17;;;20.80;99.90;;;;;;6043320;23;20167;-73
2023/09/09 07:41:54;;;;;;;5.97;5.37;;;20.90;99.90;;;;;;6090885;23;20412;-73
2023/09/09 07:44:21;;;;;;;8.57;7.67;;;21.00;99.90;;;;;;6117270;23;20165;-74
2023/09/09 07:46:51;;;;;;;8.17;7.43;;;21.10;99.90;;;;;;6068128;23;20367;-73
2023/09/09 07:49:17;;;;;;;9.87;7.13;;;21.20;99.90;;;;;;6091258;23;20634;-74
2023/09/09 07:51:46;;;;;;;8.30;7.60;;;21.20;99.90;;;;;;6067217;23;20368;-75
2023/09/09 07:54:12;;;;;;;7.47;6.70;;;21.30;99.90;;;;;;6067958;23;20399;-74
2023/09/09 07:56:42;;;;;;;9.03;7.60;;;21.40;99.90;;;;;;6069337;23;20387;-74
2023/09/09 07:59:07;;;;;;;9.23;8.37;;;21.50;99.90;;;;;;6090243;23;20409;-75
2023/09/09 08:01:33;;;;;;;9.30;6.93;;;21.60;99.90;;;;;;6090665;23;20381;-73
2023/09/09 08:03:58;;;;;;;7.50;6.73;;;21.70;99.90;;;;;;6065575;23;20164;-76
2023/09/09 08:06:27;;;;;;;7.33;6.70;;;21.70;99.90;;;;;;6066726;23;20148;-74
2023/09/09 08:08:52;;;;;;;6.93;6.23;;;21.80;99.90;;;;;;6066746;23;20199;-75
2023/09/09 08:11:20;;;;;;;8.47;7.67;;;21.90;99.90;;;;;;6116348;23;20376;-75
2023/09/09 08:13:48;;;;;;;7.93;7.23;;;22.00;99.90;;;;;;6067183;23;20171;-74
2023/09/09 08:16:15;;;;;;;11.10;7.00;;;22.00;99.90;;;;;;6066992;23;20607;-72
2023/09/09 08:18:41;;;;;;;7.70;7.00;;;22.10;99.90;;;;;;6089795;23;20393;-74
2023/09/09 08:21:12;;;;;;;8.20;7.40;;;22.20;99.90;;;;;;6088339;23;20372;-73
2023/09/09 08:23:39;;;;;;;7.27;6.57;;;22.30;99.90;;;;;;6090741;23;20412;-74
2023/09/09 08:26:06;;;;;;;7.30;6.60;;;22.40;99.90;;;;;;6092065;23;20421;-77
2023/09/09 08:28:32;;;;;;;8.53;7.73;;;22.40;99.90;;;;;;6068804;23;20400;-75
2023/09/09 08:31:02;;;;;;;9.13;8.33;;;22.50;99.90;;;;;;6072566;23;20402;-73
2023/09/09 08:33:28;;;;;;;9.20;8.40;;;22.60;99.90;;;;;;6073041;23;20424;-74
2023/09/09 08:36:02;;;;;;;8.73;7.90;;;22.70;99.80;;;;;;6091672;23;20380;-73
2023/09/09 08:38:29;;;;;;;12.00;8.00;;;22.70;99.60;;;;;;6092400;23;20124;-74
2023/09/09 08:41:06;;;;;;;8.57;7.60;;;22.90;99.20;;;;;;6069443;23;20361;-75
2023/09/09 08:44:08;;;;;;;9.80;6.97;;;22.90;98.90;;;;;;6095039;23;20725;-76
2023/09/09 08:46:35;;;;;;;11.53;8.23;;;23.00;98.50;;;;;;6091087;23;20504;-75
2023/09/09 08:49:06;;;;;;;7.60;6.90;;;23.10;98.00;;;;;;6118497;23;20416;-76
2023/09/09 08:51:39;;;;;;;7.40;6.70;;;23.10;97.80;;;;;;6093184;23;20425;-75
2023/09/09 08:54:07;;;;;;;10.53;7.97;;;23.20;97.40;;;;;;6069079;23;20393;-74
2023/09/09 08:56:33;;;;;;;8.87;8.03;;;23.30;96.30;;;;;;6056599;23;20386;-77
2023/09/09 08:58:59;;;;;;;7.40;6.80;;;23.40;96.10;;;;;;6010145;23;20468;-76
2023/09/09 09:01:27;;;;;;;10.03;8.27;;;23.50;95.60;;;;;;6036826;23;20395;-76
2023/09/09 09:03:55;;;;;;;8.00;7.30;;;23.60;95.10;;;;;;6034820;23;20179;-74
2023/09/09 09:06:22;;;;;;;7.53;6.83;;;23.60;94.80;;;;;;6011040;23;20452;-75
2023/09/09 09:08:49;;;;;;;9.40;7.77;;;23.70;94.40;;;;;;6036339;23;20442;-75
2023/09/09 09:11:17;;;;;;;7.27;6.53;;;23.80;93.80;;;;;;6010534;23;20402;-74
2023/09/09 09:13:42;;;;;;;6.67;6.00;;;23.90;93.00;;;;;;6033175;23;20707;-75
2023/09/09 09:16:18;;;;;;;7.50;6.87;;;23.90;92.40;;;;;;6040812;23;20385;-75
2023/09/09 09:18:43;;;;;;;7.83;7.13;;;24.00;92.10;;;;;;6039964;23;20149;-73
2023/09/09 09:21:12;;;;;;;8.63;7.80;;;24.10;91.60;;;;;;6064417;23;20437;-75
2023/09/09 09:23:46;;;;;;;9.17;8.23;;;24.30;90.50;;;;;;6042109;23;20409;-76
2023/09/09 09:26:26;;;;;;;8.83;7.73;;;24.40;90.40;;;;;;6065725;23;20369;-73
2023/09/09 09:28:53;;;;;;;7.10;6.40;;;24.40;90.00;;;;;;6018970;23;20429;-75
2023/09/09 09:31:21;;;;;;;7.43;6.73;;;24.50;89.40;;;;;;6066775;23;20377;-74
2023/09/09 09:33:53;;;;;;;8.40;7.60;;;24.50;88.20;;;;;;6064991;23;20385;-76
2023/09/09 09:36:23;;;;;;;7.97;7.17;;;24.50;87.40;;;;;;6067474;23;20441;-75
2023/09/09 09:38:51;;;;;;;7.80;6.77;;;24.50;87.20;;;;;;6011770;23;20390;-78
2023/09/09 09:41:20;;;;;;;7.13;6.53;;;24.60;86.80;;;;;;6014252;23;20475;-74
2023/09/09 09:43:55;;;;;;;6.13;5.60;;;24.60;86.30;;;;;;5990307;23;20398;-76
2023/09/09 09:46:29;;;;;;;9.60;7.83;;;24.70;85.60;;;;;;6035658;23;20398;-74
2023/09/09 09:49:01;;;;;;;8.70;7.10;;;24.80;84.10;;;;;;6035242;23;20422;-76
2023/09/09 09:51:57;;;;;;;9.00;6.67;;;24.90;83.20;;;;;;6015568;23;20178;-75
2023/09/09 09:54:24;;;;;;;7.10;6.40;;;25.10;82.20;;;;;;6013641;23;20406;-75
2023/09/09 09:56:52;;;;;;;7.50;6.37;;;25.20;81.80;;;;;;6036107;23;20402;-77
2023/09/09 09:59:21;;;;;;;8.37;7.20;;;25.30;80.90;;;;;;5990000;23;20369;-74
2023/09/09 10:01:48;;;;;;;7.50;6.70;;;25.40;80.10;;;;;;6063781;23;20411;-77
2023/09/09 10:04:18;;;;;;;6.60;6.00;;;25.40;79.50;;;;;;6038034;23;20418;-75
2023/09/09 10:06:54;;;;;;;7.87;6.97;;;25.50;78.70;;;;;;5969358;23;20391;-75
2023/09/09 10:09:55;;;;;;;6.73;6.10;;;25.60;78.10;;;;;;6014273;23;20508;-74
2023/09/09 10:15:22;;;;;;;10.43;7.30;;;25.80;76.60;;;;;;6061263;23;20375;-76
2023/09/09 10:17:51;;;;;;;11.53;7.63;;;25.90;75.70;;;;;;6057176;23;20430;-74
2023/09/09 10:20:21;;;;;;;8.80;6.60;;;26.10;75.30;;;;;;6035820;23;20426;-76
2023/09/09 10:22:50;;;;;;;7.77;6.67;;;26.20;74.50;;;;;;6060913;23;20397;-75
2023/09/09 10:25:17;;;;;;;8.77;6.50;;;26.20;73.70;;;;;;6014648;23;20385;-74
2023/09/09 10:27:43;;;;;;;9.80;7.10;;;26.30;73.40;;;;;;6039445;23;20421;-77
2023/09/09 10:30:10;;;;;;;9.80;8.80;;;26.30;72.70;;;;;;6039178;23;20447;-75
2023/09/09 10:32:39;;;;;;;7.97;7.13;;;26.40;72.10;;;;;;6012551;23;20386;-75
2023/09/09 10:35:18;;;;;;;6.33;5.50;;;26.50;72.60;;;;;;6034732;23;20382;-76
2023/09/09 10:37:47;;;;;;;7.90;6.90;;;26.60;71.70;;;;;;6038512;23;20381;-77
2023/09/09 10:40:19;;;;;;;7.83;6.40;;;26.60;71.30;;;;;;6017567;23;20385;-78
2023/09/09 10:42:46;;;;;;;11.47;8.13;;;26.70;70.80;;;;;;6017049;23;20418;-76
2023/09/09 10:45:39;;;;;;;8.90;7.37;;;26.80;70.00;;;;;;6016011;23;20374;-77
2023/09/09 10:48:13;;;;;;;8.00;6.67;;;26.80;70.00;;;;;;6066450;23;20442;-77
2023/09/09 10:50:53;;;;;;;7.07;6.37;;;26.90;69.30;;;;;;6041603;23;20404;-77
2023/09/09 10:56:15;;;;;;;6.87;6.00;;;27.10;68.50;;;;;;6123658;23;20475;-77
2023/09/09 10:59:33;;;;;;;6.77;6.07;;;27.20;68.00;;;;;;6122876;23;20372;-76
2023/09/09 11:02:22;;;;;;;7.63;6.77;;;27.30;67.50;;;;;;6096446;23;20452;-78
2023/09/09 11:05:00;;;;;;;8.90;6.63;;;27.30;67.30;;;;;;6118911;23;20384;-78
2023/09/09 11:07:44;;;;;;;7.00;6.23;;;27.30;66.80;;;;;;6095849;23;20388;-76
2023/09/09 11:10:16;;;;;;;7.20;5.57;;;27.40;66.60;;;;;;6097395;23;20774;-77
2023/09/09 11:15:24;;;;;;;6.53;5.87;;;27.60;66.20;;;;;;6099375;23;20952;-77
2023/09/09 11:17:51;;;;;;;6.40;5.80;;;27.60;66.10;;;;;;6096978;23;20365;-76
2023/09/09 11:20:20;;;;;;;6.57;5.87;;;27.70;65.80;;;;;;6070889;23;20407;-78
2023/09/09 11:22:54;;;;;;;10.60;5.60;;;27.70;65.20;;;;;;6095184;23;20447;-76
2023/09/09 11:25:36;;;;;;;7.97;6.03;;;27.80;64.80;;;;;;6093995;23;20479;-77
2023/09/09 11:28:04;;;;;;;9.43;7.47;;;27.80;64.40;;;;;;6096263;23;20475;-75
2023/09/09 11:30:40;;;;;;;19.13;7.13;;;27.80;64.10;;;;;;6074021;23;20385;-76
2023/09/09 11:33:07;;;;;;;11.13;7.17;;;27.80;64.30;;;;;;6093461;23;20525;-76
2023/09/09 11:35:35;;;;;;;7.37;6.10;;;27.80;64.40;;;;;;6062517;23;20454;-77
2023/09/09 11:38:03;;;;;;;9.53;7.03;;;27.80;64.40;;;;;;6067122;23;20142;-77
2023/09/09 11:44:18;;;;;;;11.77;7.77;;;27.90;63.90;;;;;;6109338;23;20440;-78
2023/09/09 11:46:47;;;;;;;11.00;7.00;;;28.00;63.90;;;;;;6079468;23;20392;-77
2023/09/09 11:49:18;;;;;;;13.27;8.03;;;28.10;63.50;;;;;;6071404;23;20413;-76
2023/09/09 11:52:03;;;;;;;7.33;6.23;;;28.00;63.50;;;;;;6099580;23;20407;-78
2023/09/09 11:54:45;;;;;;;8.30;5.60;;;28.10;63.70;;;;;;6025236;23;20408;-77
2023/09/09 11:57:14;;;;;;;6.40;5.50;;;28.10;63.60;;;;;;6102578;23;20356;-77
2023/09/09 11:59:54;;;;;;;11.07;5.87;;;28.20;63.60;;;;;;6098377;23;20373;-75
2023/09/09 12:02:25;;;;;;;9.77;6.10;;;28.30;62.90;;;;;;6101622;23;20445;-77
2023/09/09 12:05:01;;;;;;;5.90;5.30;;;28.30;64.90;;;;;;6045709;23;20422;-77
2023/09/09 12:07:37;;;;;;;9.27;7.87;;;28.40;62.70;;;;;;6092211;23;20377;-77
2023/09/09 12:10:07;;;;;;;10.20;6.90;;;28.50;62.10;;;;;;6063885;23;20408;-75
2023/09/09 12:12:35;;;;;;;13.13;7.70;;;28.50;61.90;;;;;;6067232;23;20392;-77
2023/09/09 12:15:13;;;;;;;8.53;6.93;;;28.50;62.00;;;;;;6090570;23;20377;-78
2023/09/09 12:18:00;;;;;;;7.70;6.80;;;28.50;61.20;;;;;;6113535;23;20471;-77
2023/09/09 12:20:31;;;;;;;8.57;5.50;;;28.50;61.00;;;;;;6076042;23;20380;-78
2023/09/09 12:22:57;;;;;;;6.50;5.47;;;28.50;60.90;;;;;;6072593;23;20403;-79
2023/09/09 12:25:37;;;;;;;8.10;6.20;;;28.50;61.00;;;;;;6093404;23;20369;-76
2023/09/09 12:28:15;;;;;;;7.50;6.00;;;28.60;60.50;;;;;;6096516;23;20444;-77
2023/09/09 12:30:45;;;;;;;8.00;5.30;;;28.60;60.00;;;;;;6076305;23;20392;-77
2023/09/09 12:33:17;;;;;;;8.17;5.50;;;28.60;59.70;;;;;;6098367;23;20404;-76
2023/09/09 12:35:51;;;;;;;8.27;6.23;;;28.60;59.90;;;;;;6074117;23;20380;-78
2023/09/09 12:38:18;;;;;;;9.20;6.73;;;28.70;59.40;;;;;;6055518;23;20436;-76
2023/09/09 12:41:11;;;;;;;6.47;5.77;;;28.70;59.20;;;;;;6045098;23;20397;-78
2023/09/09 12:43:39;;;;;;;7.27;6.03;;;28.90;59.20;;;;;;6041913;23;20402;-77
2023/09/09 12:46:26;;;;;;;9.50;5.67;;;28.90;58.40;;;;;;6065991;23;20403;-77
2023/09/09 12:49:12;;;;;;;7.30;6.60;;;29.00;58.60;;;;;;6066742;23;20441;-78
2023/09/09 12:51:43;;;;;;;7.67;6.53;;;29.10;58.80;;;;;;6052697;23;20457;-78
2023/09/09 12:57:51;;;;;;;8.03;6.00;;;29.20;58.60;;;;;;6123637;23;20439;-79
2023/09/09 13:00:18;;;;;;;10.50;6.23;;;29.20;58.10;;;;;;6074386;23;20420;-77
2023/09/09 13:06:20;;;;;;;13.10;5.10;;;29.30;55.90;;;;;;6065233;23;20501;-78
2023/09/09 13:12:10;;;;;;;6.90;5.23;;;29.40;54.90;;;;;;6084591;23;20492;-78
2023/09/09 13:14:47;;;;;;;7.87;4.50;;;29.30;54.80;;;;;;5979883;23;20421;-78
2023/09/09 13:17:16;;;;;;;5.33;4.13;;;29.30;55.50;;;;;;5953844;24;20380;-76
2023/09/09 13:19:52;;;;;;;13.93;6.40;;;29.30;56.50;;;;;;5959712;23;20353;-78